Time;durP1;ratioP1;P1;durP2;ratioP2;P2;SDS_P1;SDS_P2;PMS_P1;PMS_P2;Temp;Humidity;BMP_temperature;BMP_pressure;BME280_temperature;BME280_humidity;BME280_pressure;Samples;Min_cycle;Max_cycle;Signal;HPM_P1;HPM_P2
2022/06/03 00:00:25;;;;;;;8.05;6.07;;;;;;;22.91;74.04;100973.84;4769030;30;20503;-67
2022/06/03 00:03:30;;;;;;;7.15;5.45;;;;;;;22.91;73.85;100971.06;4758457;30;20063;-67
2022/06/03 00:06:12;;;;;;;6.78;5.55;;;;;;;22.81;74.89;100974.34;4769575;30;20059;-66
2022/06/03 00:08:43;;;;;;;8.98;5.97;;;;;;;22.74;75.00;100986.13;4770042;30;20543;-66
2022/06/03 00:11:38;;;;;;;9.68;5.68;;;;;;;22.69;75.46;100987.16;4769757;30;20075;-66
2022/06/03 00:14:44;;;;;;;6.97;5.32;;;;;;;22.66;75.88;100995.44;4769873;30;20051;-67
2022/06/03 00:17:31;;;;;;;9.20;5.68;;;;;;;22.70;74.98;100990.78;4770012;29;20055;-67
2022/06/03 00:20:17;;;;;;;5.47;4.95;;;;;;;22.78;74.75;100987.03;4769265;30;20696;-66
2022/06/03 00:22:54;;;;;;;7.57;5.63;;;;;;;22.82;74.88;100976.78;4769726;30;20392;-66
2022/06/03 00:25:42;;;;;;;9.07;5.60;;;;;;;22.95;74.46;100979.53;4769453;30;20059;-66
2022/06/03 00:28:35;;;;;;;6.18;5.47;;;;;;;23.01;73.97;100968.94;4769608;30;20053;-67
2022/06/03 00:31:05;;;;;;;9.10;6.47;;;;;;;22.97;74.40;100963.22;4769548;30;20056;-67
2022/06/03 00:33:41;;;;;;;9.88;5.43;;;;;;;22.93;74.19;100974.28;4769583;30;20063;-67
2022/06/03 00:36:30;;;;;;;8.48;5.88;;;;;;;22.95;74.03;100971.97;4769485;30;20058;-66
2022/06/03 00:39:33;;;;;;;9.00;5.63;;;;;;;22.91;74.68;100964.66;4769478;30;20062;-67
2022/06/03 00:42:38;;;;;;;8.52;5.68;;;;;;;22.87;74.77;100961.75;4769551;30;20063;-67
2022/06/03 00:45:09;;;;;;;;;;;;;;;22.88;75.10;100976.53;4769671;30;20063;-67
2022/06/03 00:47:43;;;;;;;6.38;5.13;;;;;;;22.89;74.50;100972.56;4769540;30;19937;-67
2022/06/03 00:50:29;;;;;;;7.10;5.60;;;;;;;23.09;74.52;100973.53;4768331;30;20056;-66
2022/06/03 00:53:28;;;;;;;6.68;5.30;;;;;;;23.06;74.70;100966.69;4769164;30;20068;-66
2022/06/03 00:55:56;;;;;;;5.53;4.97;;;;;;;22.99;74.85;100976.84;4769287;30;20516;-67
2022/06/03 00:58:48;;;;;;;9.73;5.43;;;;;;;23.01;74.71;100980.91;4769287;30;20445;-67
2022/06/03 01:01:27;;;;;;;6.38;5.35;;;;;;;23.21;74.08;100983.81;4769475;30;20055;-67
2022/06/03 01:04:43;;;;;;;8.70;5.97;;;;;;;23.29;73.32;100988.44;4767342;30;20063;-66
2022/06/03 01:07:42;;;;;;;6.75;5.25;;;;;;;23.16;74.77;101000.84;4768888;30;20082;-67
2022/06/03 01:10:19;;;;;;;5.85;5.25;;;;;;;23.05;75.07;100998.56;4770444;29;20067;-67
2022/06/03 01:13:01;;;;;;;9.27;6.15;;;;;;;23.16;73.98;101006.44;4768955;30;20054;-67
2022/06/03 01:15:50;;;;;;;7.75;6.07;;;;;;;23.26;73.37;100997.50;4769013;30;20071;-67
2022/06/03 01:18:29;;;;;;;7.07;5.57;;;;;;;23.11;74.51;100993.50;4768918;30;20052;-67
2022/06/03 01:21:06;;;;;;;7.80;5.18;;;;;;;23.05;74.55;100994.94;4769133;30;20055;-67
2022/06/03 01:23:42;;;;;;;7.55;5.22;;;;;;;23.05;75.31;100992.97;4768676;30;20063;-67
2022/06/03 01:26:27;;;;;;;6.90;5.60;;;;;;;23.03;75.50;100994.50;4769301;30;20062;-66
2022/06/03 01:29:10;;;;;;;6.63;5.18;;;;;;;22.98;75.79;100991.97;4768984;30;20047;-67
2022/06/03 01:32:08;;;;;;;8.43;5.13;;;;;;;23.04;75.68;100991.34;4767494;30;20059;-67
2022/06/03 01:34:57;;;;;;;7.03;5.40;;;;;;;23.10;75.00;100991.91;4768592;30;20064;-67
2022/06/03 01:37:33;;;;;;;5.88;5.28;;;;;;;23.06;75.40;100982.59;4767272;30;20051;-67
2022/06/03 01:40:01;;;;;;;6.47;4.95;;;;;;;23.11;74.80;100982.34;4769402;30;20051;-67
2022/06/03 01:43:03;;;;;;;6.18;5.25;;;;;;;23.21;74.38;100981.03;4768582;30;20507;-66
2022/06/03 01:46:03;;;;;;;9.38;6.07;;;;;;;23.08;75.21;100978.28;4768357;29;20080;-66
2022/06/03 01:48:33;;;;;;;8.65;5.53;;;;;;;23.05;75.43;100978.19;4761010;30;20063;-67
2022/06/03 01:51:01;;;;;;;7.35;5.55;;;;;;;23.07;75.59;100984.25;4768671;30;20122;-67
2022/06/03 01:53:50;;;;;;;6.28;5.28;;;;;;;23.01;76.52;100980.09;4768537;30;20052;-67
2022/06/03 01:56:39;;;;;;;7.40;5.97;;;;;;;23.09;75.74;100982.72;4768628;30;20395;-67
2022/06/03 01:59:21;;;;;;;8.38;6.13;;;;;;;23.03;76.23;100972.97;4768795;30;20062;-67
2022/06/03 02:02:10;;;;;;;7.13;5.57;;;;;;;23.07;75.91;100976.69;4770427;30;20409;-67
2022/06/03 02:05:00;;;;;;;11.55;6.13;;;;;;;23.11;75.90;100987.94;4771615;30;20411;-67
2022/06/03 02:07:45;;;;;;;8.07;7.07;;;;;;;23.15;75.90;100988.84;4772008;30;20055;-67
2022/06/03 02:10:38;;;;;;;10.32;6.25;;;;;;;23.15;75.96;100977.69;4770440;30;20213;-66
2022/06/03 02:13:33;;;;;;;9.25;6.95;;;;;;;23.14;75.23;100983.63;4771620;30;20060;-67
2022/06/03 02:16:25;;;;;;;8.15;6.55;;;;;;;23.17;75.38;100982.91;4771861;30;20054;-67
2022/06/03 02:19:03;;;;;;;10.95;7.50;;;;;;;23.15;74.55;100988.84;4771707;30;20067;-67
2022/06/03 02:22:05;;;;;;;9.48;7.05;;;;;;;23.16;75.62;100989.69;4782997;30;20066;-67
2022/06/03 02:24:51;;;;;;;9.10;7.72;;;;;;;23.11;75.42;100989.94;4770818;30;20067;-67
2022/06/03 02:27:37;;;;;;;10.85;7.63;;;;;;;23.06;75.71;100993.78;4784938;30;20056;-67
2022/06/03 02:30:26;;;;;;;12.93;7.68;;;;;;;23.02;76.31;100992.88;4771602;30;20059;-66
2022/06/03 02:33:15;;;;;;;12.60;7.55;;;;;;;22.89;76.15;100995.72;4770962;30;20055;-66
2022/06/03 02:36:02;;;;;;;11.68;7.90;;;;;;;22.86;76.52;100992.84;4783758;30;20063;-67
2022/06/03 02:38:54;;;;;;;7.65;6.80;;;;;;;22.76;76.87;101002.50;4771221;30;20075;-67
2022/06/03 02:41:52;;;;;;;13.32;7.55;;;;;;;22.77;77.49;100999.34;4771319;30;20056;-66
2022/06/03 02:44:30;;;;;;;14.38;7.65;;;;;;;22.80;76.89;101003.41;4770891;30;20056;-66
2022/06/03 02:47:35;;;;;;;10.60;7.72;;;;;;;22.76;77.16;101010.84;4771408;30;20055;-67
2022/06/03 02:50:34;;;;;;;12.80;7.40;;;;;;;22.71;77.40;101011.94;4760961;30;20071;-66
2022/06/03 02:53:23;;;;;;;12.35;7.78;;;;;;;22.68;77.17;101009.84;4770994;30;20064;-67
2022/06/03 02:56:02;;;;;;;11.80;8.20;;;;;;;22.74;76.82;101010.41;4770949;30;20055;-66
2022/06/03 02:58:48;;;;;;;10.85;7.72;;;;;;;22.67;77.00;101005.41;4761495;30;20051;-66
2022/06/03 03:01:37;;;;;;;15.85;7.82;;;;;;;22.69;76.82;101009.47;4771042;30;20056;-67
2022/06/03 03:04:11;;;;;;;10.93;7.07;;;;;;;22.76;76.73;101008.91;4770494;30;20063;-67
2022/06/03 03:07:05;;;;;;;8.60;7.05;;;;;;;22.74;76.34;101011.22;4771038;30;20056;-66
2022/06/03 03:09:59;;;;;;;8.88;6.75;;;;;;;22.76;76.48;101008.91;4769396;30;20063;-67
2022/06/03 03:12:45;;;;;;;9.02;7.55;;;;;;;22.76;75.54;101011.69;4770214;30;20060;-67
2022/06/03 03:15:21;;;;;;;8.38;5.78;;;;;;;22.80;75.12;101007.03;4770743;30;20055;-66
2022/06/03 03:18:20;;;;;;;8.38;5.90;;;;;;;22.84;74.63;101020.25;4771078;30;20522;-66
2022/06/03 03:21:38;;;;;;;9.25;6.70;;;;;;;22.82;74.24;101004.69;4770779;30;20043;-67
2022/06/03 03:24:08;;;;;;;9.25;6.13;;;;;;;22.83;73.95;101002.72;4759582;30;20516;-67
2022/06/03 03:27:00;;;;;;;8.50;6.22;;;;;;;22.85;73.34;101005.13;4770560;30;20059;-66
2022/06/03 03:29:43;;;;;;;9.10;6.60;;;;;;;22.80;73.85;101004.25;4770772;30;20407;-67
2022/06/03 03:32:19;;;;;;;9.82;5.88;;;;;;;22.79;73.39;101002.59;4770175;30;20056;-66
2022/06/03 03:35:28;;;;;;;9.98;6.40;;;;;;;22.77;72.97;101004.94;4770198;30;20055;-66
2022/06/03 03:38:02;;;;;;;10.25;6.20;;;;;;;22.76;73.20;101014.47;4770610;30;20056;-66
2022/06/03 03:40:49;;;;;;;12.55;5.85;;;;;;;22.73;73.05;101019.94;4770463;30;20064;-66
2022/06/03 03:43:28;;;;;;;11.43;6.95;;;;;;;22.69;73.40;101026.22;4769866;30;20070;-66
2022/06/03 03:46:02;;;;;;;8.45;6.75;;;;;;;22.70;73.45;101024.25;4770488;30;20077;-66
2022/06/03 03:48:51;;;;;;;9.07;6.13;;;;;;;22.60;73.96;101022.78;4770246;30;20059;-66
2022/06/03 03:51:52;;;;;;;9.90;7.18;;;;;;;22.60;74.17;101028.34;4770227;30;20055;-66
2022/06/03 03:54:23;;;;;;;9.40;6.55;;;;;;;22.54;74.41;101030.56;4769920;30;20491;-66
2022/06/03 03:57:22;;;;;;;9.68;7.00;;;;;;;22.59;74.15;101020.31;4770329;29;20052;-66
2022/06/03 04:00:21;;;;;;;10.40;6.90;;;;;;;22.53;74.44;101028.13;4770154;30;20055;-66
2022/06/03 04:03:07;;;;;;;9.85;6.00;;;;;;;22.53;74.71;101028.94;4769813;30;20059;-67
2022/06/03 04:05:55;;;;;;;9.38;6.40;;;;;;;22.62;74.29;101028.81;4765024;30;20512;-66
2022/06/03 04:08:29;;;;;;;10.48;6.57;;;;;;;22.65;74.29;101039.28;4758268;30;20044;-66
2022/06/03 04:11:36;;;;;;;9.05;6.25;;;;;;;22.74;73.87;101036.34;4769891;30;20064;-67
2022/06/03 04:14:17;;;;;;;9.68;6.40;;;;;;;22.77;73.21;101027.25;4755488;30;20531;-67
2022/06/03 04:17:19;;;;;;;7.25;6.03;;;;;;;22.86;72.47;101031.91;4767693;30;20064;-67
2022/06/03 04:20:08;;;;;;;8.00;5.68;;;;;;;22.89;71.83;101037.56;4769839;30;20059;-66
2022/06/03 04:22:59;;;;;;;8.18;5.45;;;;;;;23.00;71.21;101039.84;4758932;30;20043;-66
2022/06/03 04:25:58;;;;;;;10.27;5.47;;;;;;;23.06;70.81;101033.66;4768625;30;20423;-66
2022/06/03 04:28:58;;;;;;;7.13;5.18;;;;;;;23.11;70.10;101046.56;4769514;30;20055;-66
2022/06/03 04:32:07;;;;;;;6.97;5.30;;;;;;;23.18;69.48;101057.13;4769492;30;20423;-66
2022/06/03 04:35:13;;;;;;;6.10;5.28;;;;;;;23.24;69.30;101066.84;4766272;30;20055;-66
2022/06/03 04:38:00;;;;;;;10.00;5.65;;;;;;;23.32;69.35;101067.91;4778237;30;20058;-66
2022/06/03 04:41:06;;;;;;;6.90;5.15;;;;;;;23.65;68.41;101066.00;4768976;30;20044;-76
2022/06/03 04:44:11;;;;;;;6.32;5.10;;;;;;;23.82;67.67;101079.63;4768828;30;20071;-77
2022/06/03 04:47:18;;;;;;;5.95;4.57;;;;;;;23.85;67.01;101075.31;4768162;30;20050;-76
2022/06/03 04:49:55;;;;;;;5.43;4.35;;;;;;;24.07;66.38;101073.03;4768158;30;20056;-76
2022/06/03 04:53:01;;;;;;;8.95;5.32;;;;;;;24.08;66.61;101078.31;4763259;30;20043;-77
2022/06/03 04:55:48;;;;;;;5.45;4.72;;;;;;;24.17;66.20;101072.53;4768504;30;20052;-76
2022/06/03 04:58:16;;;;;;;8.18;5.15;;;;;;;24.23;66.45;101070.25;4764419;30;20067;-76
2022/06/03 05:01:11;;;;;;;8.25;5.03;;;;;;;24.38;65.44;101066.63;4765809;30;20047;-76
2022/06/03 05:04:11;;;;;;;6.10;4.93;;;;;;;24.37;65.16;101073.41;4761693;30;20056;-77
2022/06/03 05:07:08;;;;;;;5.82;4.78;;;;;;;24.39;64.87;101068.25;4763957;30;20460;-77
2022/06/03 05:09:55;;;;;;;5.55;4.75;;;;;;;24.39;65.16;101079.44;4764343;30;20059;-76
2022/06/03 05:12:59;;;;;;;6.22;4.68;;;;;;;24.41;65.25;101063.13;4765131;30;20055;-76
2022/06/03 05:16:03;;;;;;;5.20;4.70;;;;;;;24.50;64.96;101067.69;4761550;30;20076;-77
2022/06/03 05:19:12;;;;;;;5.60;4.33;;;;;;;24.51;64.95;101074.91;4772360;29;20051;-74
2022/06/03 05:22:13;;;;;;;5.88;4.82;;;;;;;24.54;64.49;101063.00;4742367;30;20109;-74
2022/06/03 05:24:54;;;;;;;5.22;4.32;;;;;;;24.43;65.56;101060.78;4767896;30;20793;-74
2022/06/03 05:27:46;;;;;;;5.35;4.40;;;;;;;24.58;65.15;101066.69;4768234;30;20060;-74
2022/06/03 05:30:38;;;;;;;8.90;4.78;;;;;;;24.64;64.86;101056.81;4776994;29;20079;-74
2022/06/03 05:33:29;;;;;;;7.22;4.55;;;;;;;24.65;64.70;101058.47;4761748;30;20081;-75
2022/06/03 05:36:24;;;;;;;5.20;3.67;;;;;;;24.74;63.89;101060.25;4768758;30;20767;-75
2022/06/03 05:39:23;;;;;;;4.47;4.07;;;;;;;24.75;63.80;101067.44;4771699;30;20062;-75
2022/06/03 05:42:32;;;;;;;6.82;4.32;;;;;;;24.76;63.68;101067.09;4772195;30;20059;-75
2022/06/03 05:45:32;;;;;;;4.60;4.20;;;;;;;24.85;63.09;101071.69;4770220;30;20058;-75
2022/06/03 05:48:33;;;;;;;5.88;4.20;;;;;;;24.92;63.37;101069.84;4785306;29;20526;-75
2022/06/03 05:51:47;;;;;;;5.20;4.45;;;;;;;25.06;62.90;101068.53;4762369;30;20055;-75
2022/06/03 05:54:20;;;;;;;5.53;3.90;;;;;;;25.20;62.88;101079.22;4763259;30;20047;-75
2022/06/03 05:56:59;;;;;;;5.57;4.13;;;;;;;25.35;61.74;101083.94;4770475;30;20070;-74
2022/06/03 05:59:44;;;;;;;4.60;4.20;;;;;;;25.38;61.54;101090.78;4771626;30;20063;-75
2022/06/03 06:03:03;;;;;;;7.60;4.80;;;;;;;25.42;61.13;101083.25;4771345;30;20052;-76
2022/06/03 06:05:51;;;;;;;5.82;4.45;;;;;;;25.40;61.14;101090.44;4762710;30;20055;-76
2022/06/03 06:08:28;;;;;;;6.50;4.35;;;;;;;25.56;61.11;101091.16;4768754;30;20051;-76
2022/06/03 06:11:24;;;;;;;6.22;4.57;;;;;;;25.61;60.63;101090.06;4771311;30;20052;-76
2022/06/03 06:14:23;;;;;;;8.65;4.35;;;;;;;25.80;59.89;101096.78;4770019;30;20056;-76
2022/06/03 06:16:53;;;;;;;6.05;4.53;;;;;;;25.79;60.46;101090.38;4771274;30;20056;-77
2022/06/03 06:20:07;;;;;;;4.55;3.90;;;;;;;25.99;60.01;101090.28;4771570;30;20060;-76
2022/06/03 06:22:46;;;;;;;6.65;4.07;;;;;;;25.99;60.02;101084.69;4733959;30;20051;-76
2022/06/03 06:25:13;;;;;;;4.72;4.20;;;;;;;26.13;59.33;101086.94;4769518;30;20076;-77
2022/06/03 06:28:19;;;;;;;5.63;4.03;;;;;;;26.11;59.09;101086.50;4771137;30;20491;-76
2022/06/03 06:31:05;;;;;;;3.88;3.58;;;;;;;26.15;58.66;101085.38;4784021;29;20059;-76
2022/06/03 06:33:33;;;;;;;6.45;4.43;;;;;;;26.15;58.81;101087.38;4785060;29;20060;-76
2022/06/03 06:36:15;;;;;;;7.90;4.53;;;;;;;26.03;58.88;101089.19;4771482;30;20055;-76
2022/06/03 06:38:52;;;;;;;5.15;4.60;;;;;;;26.00;58.74;101095.53;4771364;30;20530;-76
2022/06/03 06:41:38;;;;;;;6.75;4.60;;;;;;;25.92;59.46;101093.81;4770201;30;20059;-76
2022/06/03 06:44:15;;;;;;;9.45;4.55;;;;;;;26.09;59.51;101091.69;4771078;30;20059;-76
2022/06/03 06:47:16;;;;;;;4.32;3.92;;;;;;;26.19;58.75;101102.25;4771304;30;20062;-76
2022/06/03 06:50:24;;;;;;;5.07;4.43;;;;;;;26.26;58.60;101099.63;4770515;30;20048;-77
2022/06/03 06:53:12;;;;;;;4.65;4.00;;;;;;;26.19;58.72;101091.03;4770960;30;20492;-76
2022/06/03 06:56:17;;;;;;;5.35;4.60;;;;;;;26.15;58.39;101084.56;4771453;30;20060;-76
2022/06/03 06:58:59;;;;;;;6.07;4.03;;;;;;;26.02;58.29;101086.75;4771251;30;20052;-77
2022/06/03 07:01:39;;;;;;;6.20;4.10;;;;;;;26.10;57.79;101077.28;4770888;30;20059;-76
2022/06/03 07:04:34;;;;;;;5.50;4.32;;;;;;;26.12;57.81;101080.53;4770736;30;20058;-76
2022/06/03 07:07:16;;;;;;;5.53;4.43;;;;;;;26.07;57.86;101071.59;4770969;30;20059;-77
2022/06/03 07:09:48;;;;;;;4.35;3.85;;;;;;;26.03;58.35;101046.31;4770807;30;20051;-76
2022/06/03 07:12:19;;;;;;;5.63;4.03;;;;;;;25.99;57.87;101035.03;4770502;30;20408;-75
2022/06/03 07:15:35;;;;;;;4.53;3.88;;;;;;;25.92;57.59;101023.72;4770309;30;20079;-76
2022/06/03 07:21:59;;;;;;;3.70;3.40;;;;;;;26.13;57.87;101056.09;4756855;30;20062;-76
2022/06/03 07:24:44;;;;;;;4.15;3.75;;;;;;;26.10;57.40;101068.84;4760801;30;20498;-76
2022/06/03 07:27:50;;;;;;;4.82;3.50;;;;;;;26.10;57.99;101063.25;4770255;30;20048;-76
2022/06/03 07:30:32;;;;;;;3.88;3.55;;;;;;;26.11;58.06;101059.28;4749841;30;20530;-76
2022/06/03 07:33:17;;;;;;;5.10;4.05;;;;;;;26.02;57.46;101058.72;4770492;30;20051;-76
2022/06/03 07:36:04;;;;;;;5.90;3.83;;;;;;;25.96;57.94;101055.41;4770752;30;20055;-76
2022/06/03 07:38:40;;;;;;;6.95;4.35;;;;;;;25.99;57.97;101046.25;4770692;30;20059;-76
2022/06/03 07:41:14;;;;;;;4.97;3.80;;;;;;;25.95;58.12;101042.56;4770376;30;20411;-76
2022/06/03 07:43:59;;;;;;;5.07;3.83;;;;;;;25.86;58.02;101036.44;4770181;30;20063;-76
2022/06/03 07:46:53;;;;;;;4.15;3.65;;;;;;;25.83;58.45;101029.59;4770445;30;20086;-76
2022/06/03 07:49:24;;;;;;;4.70;3.75;;;;;;;26.02;58.70;101019.47;4768806;30;20419;-76
2022/06/03 07:51:59;;;;;;;4.03;3.65;;;;;;;26.19;58.45;101023.72;4769138;30;20059;-76
2022/06/03 07:54:31;;;;;;;3.97;3.58;;;;;;;26.40;57.56;101031.66;4770036;30;20055;-76
2022/06/03 07:57:03;;;;;;;4.57;4.00;;;;;;;26.64;56.92;101031.63;4769843;30;20419;-76
2022/06/03 07:59:34;;;;;;;;;;;;;;;26.85;56.38;101031.09;4770068;30;20052;-76
2022/06/03 08:02:21;;;;;;;4.50;3.63;;;;;;;26.91;56.03;101028.72;4769441;30;20313;-75
2022/06/03 08:05:03;;;;;;;3.83;3.42;;;;;;;26.91;55.90;101037.16;4768756;30;20500;-76
2022/06/03 08:13:20;;;;;;;4.40;4.00;;;;;;;27.47;54.90;101051.47;4768112;30;20051;-76
2022/06/03 08:16:05;;;;;;;4.03;3.63;;;;;;;27.61;54.40;101048.81;4769633;30;20051;-76
2022/06/03 08:18:40;;;;;;;3.72;3.42;;;;;;;27.62;53.35;101035.59;4766135;30;20050;-76
2022/06/03 08:21:17;;;;;;;4.05;3.75;;;;;;;27.59;53.55;101039.97;4769075;30;20063;-75
2022/06/03 08:23:46;;;;;;;5.70;3.30;;;;;;;27.59;52.88;101048.41;4766066;30;20052;-75
2022/06/03 08:26:16;;;;;;;6.07;3.47;;;;;;;27.69;51.90;101046.06;4766539;30;20489;-75
2022/06/03 08:28:50;;;;;;;5.18;3.50;;;;;;;27.83;52.56;101054.66;4768562;30;20076;-75
2022/06/03 08:31:22;;;;;;;4.85;3.67;;;;;;;27.89;51.83;101057.91;4766415;30;20066;-76
2022/06/03 08:33:58;;;;;;;3.53;3.22;;;;;;;28.00;52.17;101070.03;4769103;30;20048;-75
2022/06/03 08:36:30;;;;;;;4.10;3.55;;;;;;;28.04;51.29;101064.44;4769031;30;20044;-75
2022/06/03 08:39:04;;;;;;;4.35;3.97;;;;;;;28.14;50.68;101063.72;4769540;30;20063;-75
2022/06/03 08:41:51;;;;;;;3.65;3.35;;;;;;;28.13;50.63;101059.31;4759431;30;20451;-75
2022/06/03 08:44:46;;;;;;;4.72;3.58;;;;;;;28.41;50.48;101063.56;4768737;30;20416;-75
2022/06/03 08:47:17;;;;;;;5.15;3.63;;;;;;;28.36;50.06;101066.72;4765866;30;20067;-75
2022/06/03 08:50:13;;;;;;;5.60;4.03;;;;;;;28.25;49.53;101052.56;4776359;30;20047;-75
2022/06/03 08:52:46;;;;;;;4.57;3.83;;;;;;;28.27;49.86;101055.81;4767087;30;20526;-75
2022/06/03 08:55:35;;;;;;;5.50;3.63;;;;;;;28.49;49.22;101046.72;4768688;30;20380;-69
2022/06/03 08:58:14;;;;;;;4.18;3.78;;;;;;;28.72;48.32;101035.16;4764013;30;20051;-68
2022/06/03 09:00:52;;;;;;;4.00;3.70;;;;;;;29.13;48.33;101025.69;4763764;30;20059;-68
2022/06/03 09:03:23;;;;;;;4.60;3.70;;;;;;;29.45;46.40;101033.41;4768218;30;20075;-69
2022/06/03 09:05:58;;;;;;;6.38;3.78;;;;;;;29.65;45.64;101035.84;4768395;30;20401;-69
2022/06/03 09:08:34;;;;;;;5.43;3.72;;;;;;;29.52;46.46;101027.00;4768200;30;20060;-68
2022/06/03 09:11:10;;;;;;;4.57;3.70;;;;;;;29.52;45.71;101032.66;4768709;30;20058;-68
2022/06/03 09:14:01;;;;;;;4.25;3.85;;;;;;;29.14;47.12;101032.94;4772815;30;20056;-68
2022/06/03 09:16:30;;;;;;;5.20;3.80;;;;;;;28.77;47.98;101025.50;4772311;30;20535;-68
2022/06/03 09:19:25;;;;;;;5.20;3.50;;;;;;;29.17;46.73;101029.31;4771578;30;20407;-68
2022/06/03 09:21:55;;;;;;;3.80;3.17;;;;;;;29.03;46.86;101032.88;4772708;30;20059;-68
2022/06/03 09:24:33;;;;;;;6.70;3.92;;;;;;;28.86;48.02;101059.78;4777376;30;20379;-68
2022/06/03 09:27:04;;;;;;;3.47;3.00;;;;;;;29.27;47.32;101053.06;4772943;29;20067;-68
2022/06/03 09:29:34;;;;;;;4.57;3.70;;;;;;;29.93;46.18;101058.81;4772002;30;20051;-68
2022/06/03 09:32:04;;;;;;;3.85;3.53;;;;;;;29.78;45.59;101064.47;4783251;30;20453;-68
2022/06/03 09:34:38;;;;;;;3.95;3.45;;;;;;;29.43;45.63;101072.47;4768227;30;20534;-68
2022/06/03 09:37:13;;;;;;;4.05;3.47;;;;;;;29.99;45.47;101063.69;4779221;30;20054;-68
2022/06/03 09:39:44;;;;;;;3.80;3.50;;;;;;;30.01;44.77;101060.47;4772208;30;20411;-68
2022/06/03 09:42:14;;;;;;;6.10;3.45;;;;;;;30.56;44.36;101061.19;4769039;30;20047;-68
2022/06/03 09:44:46;;;;;;;4.07;3.67;;;;;;;29.90;44.93;101046.34;4771756;30;20048;-69
2022/06/03 09:47:21;;;;;;;5.70;3.53;;;;;;;29.14;46.20;101054.66;4770686;30;20526;-68
2022/06/03 09:49:52;;;;;;;3.70;3.40;;;;;;;28.50;47.89;101039.88;4771972;30;20063;-68
2022/06/03 09:52:23;;;;;;;4.07;3.67;;;;;;;28.74;47.96;101043.22;4770499;30;20058;-68
2022/06/03 09:54:54;;;;;;;4.55;3.72;;;;;;;28.47;48.69;101029.38;4770830;30;20059;-68
2022/06/03 09:57:29;;;;;;;4.93;3.65;;;;;;;28.36;49.01;101020.88;4771222;30;20052;-68
2022/06/03 10:00:15;;;;;;;3.80;3.50;;;;;;;28.95;47.93;101039.72;4773336;29;20056;-67
2022/06/03 10:02:45;;;;;;;3.97;3.60;;;;;;;28.59;48.59;101029.06;4771933;30;20408;-68
2022/06/03 10:05:16;;;;;;;4.45;3.55;;;;;;;28.73;47.43;101019.88;4771456;30;20805;-68
2022/06/03 10:07:47;;;;;;;6.40;4.07;;;;;;;28.78;48.40;101027.16;4770905;30;20059;-68
2022/06/03 10:13:07;;;;;;;5.13;3.65;;;;;;;28.93;48.23;101033.69;4770875;30;20393;-74
2022/06/03 10:15:45;;;;;;;4.60;3.80;;;;;;;28.97;48.06;101046.56;4759541;30;20056;-74
2022/06/03 10:18:49;;;;;;;4.18;3.78;;;;;;;28.56;48.85;101055.19;4771762;30;20064;-74
2022/06/03 10:21:19;;;;;;;4.43;4.03;;;;;;;28.51;49.26;101041.47;4771883;30;20055;-74
2022/06/03 10:23:56;;;;;;;5.55;4.13;;;;;;;28.70;48.82;101041.16;4771328;30;20071;-74
2022/06/03 10:26:43;;;;;;;5.05;3.92;;;;;;;28.74;48.99;101049.63;4771608;30;20048;-74
2022/06/03 10:29:18;;;;;;;4.45;3.88;;;;;;;28.83;48.98;101063.34;4771432;30;20059;-74
2022/06/03 10:31:52;;;;;;;6.47;4.00;;;;;;;28.74;48.64;101060.91;4767661;30;20056;-74
2022/06/03 10:34:38;;;;;;;4.88;4.18;;;;;;;28.73;48.60;101059.28;4771310;30;20059;-74
2022/06/03 10:37:12;;;;;;;5.97;4.28;;;;;;;28.90;49.21;101065.44;4787198;30;20055;-74
2022/06/03 10:39:42;;;;;;;4.80;4.00;;;;;;;29.02;48.42;101070.72;4769776;30;20052;-74
2022/06/03 10:42:17;;;;;;;4.63;4.18;;;;;;;29.10;48.70;101077.19;4771655;30;20051;-74
2022/06/03 10:44:49;;;;;;;5.63;3.92;;;;;;;29.42;48.37;101068.00;4770729;30;20052;-74
2022/06/03 10:47:31;;;;;;;8.93;4.18;;;;;;;29.42;47.18;101072.84;4771112;30;20067;-74
2022/06/03 10:50:01;;;;;;;6.18;4.35;;;;;;;29.35;47.96;101079.28;4771061;30;20062;-74
2022/06/03 11:01:40;;;;;;;6.10;4.20;;;;;;;29.01;48.18;101085.19;4768600;30;20055;-73
2022/06/03 11:04:25;;;;;;;5.97;5.00;;;;;;;29.02;48.08;101086.81;4769708;30;20059;-74
2022/06/03 11:06:54;;;;;;;4.32;3.92;;;;;;;28.74;49.10;101082.63;4761468;30;20044;-73
2022/06/03 11:09:23;;;;;;;4.55;4.15;;;;;;;28.77;49.56;101091.09;4767965;30;20056;-73
2022/06/03 11:11:57;;;;;;;8.38;4.72;;;;;;;28.75;49.50;101087.88;4770129;30;20059;-73
2022/06/03 11:14:35;;;;;;;;;;;;;;;28.64;49.45;101087.00;4771641;30;20063;-73
2022/06/03 11:17:10;;;;;;;5.60;4.25;;;;;;;28.47;49.98;101077.22;4769341;30;19925;-73
2022/06/03 11:19:47;;;;;;;4.47;3.70;;;;;;;28.33;50.10;101083.59;4765118;30;20055;-73
2022/06/03 11:22:32;;;;;;;6.28;4.60;;;;;;;28.23;49.51;101082.28;4781364;29;20055;-73
2022/06/03 11:25:14;;;;;;;5.20;4.20;;;;;;;28.14;50.30;101072.16;4769635;30;20048;-73
2022/06/03 11:27:58;;;;;;;5.45;4.07;;;;;;;28.19;50.56;101071.00;4764146;30;20044;-73
2022/06/03 11:30:36;;;;;;;;;;;;;;;28.15;50.69;101073.78;4769367;30;20055;-74
2022/06/03 11:33:15;;;;;;;4.05;3.70;;;;;;;28.16;51.12;101068.97;4769064;30;19926;-73
2022/06/03 11:36:03;;;;;;;5.68;4.00;;;;;;;27.98;51.87;101061.19;4763818;30;20048;-73
2022/06/03 11:38:37;;;;;;;6.22;4.03;;;;;;;28.00;51.54;101053.16;4766435;30;20090;-73
2022/06/03 11:41:17;;;;;;;4.50;4.03;;;;;;;27.99;51.05;101059.19;4760321;30;20047;-74
2022/06/03 11:43:53;;;;;;;5.20;4.28;;;;;;;27.98;51.29;101066.00;4764251;30;20060;-74
2022/06/03 11:46:59;;;;;;;5.00;4.45;;;;;;;28.03;50.81;101069.28;4758898;30;20072;-73
2022/06/03 11:49:27;;;;;;;8.30;4.32;;;;;;;27.90;51.72;101065.13;4761284;30;20124;-75
2022/06/03 11:51:55;;;;;;;5.55;4.10;;;;;;;27.98;51.66;101063.19;4764774;30;20055;-73
2022/06/03 11:54:26;;;;;;;6.40;4.15;;;;;;;27.93;52.11;101063.53;4759398;30;20047;-73
2022/06/03 11:56:55;;;;;;;4.93;4.13;;;;;;;27.93;52.10;101057.91;4763497;30;20060;-73
2022/06/03 11:59:31;;;;;;;4.22;3.83;;;;;;;27.92;51.95;101064.75;4761717;30;20059;-73
2022/06/03 12:02:14;;;;;;;4.90;3.83;;;;;;;27.84;51.73;101064.69;4766068;30;20047;-74
2022/06/03 12:04:49;;;;;;;4.17;3.83;;;;;;;27.94;52.32;101053.94;4764347;30;20048;-75
2022/06/03 12:07:48;;;;;;;5.28;3.83;;;;;;;27.75;52.84;101065.00;4766814;30;20320;-74
2022/06/03 12:10:25;;;;;;;4.65;4.25;;;;;;;27.76;53.16;101063.03;4764839;30;20094;-73
2022/06/03 12:13:17;;;;;;;4.78;3.92;;;;;;;27.68;52.66;101059.34;4760978;30;20060;-73
2022/06/03 12:15:54;;;;;;;6.40;4.00;;;;;;;27.75;53.05;101053.78;4768313;30;20059;-73
2022/06/03 12:18:31;;;;;;;5.05;4.47;;;;;;;27.79;52.89;101045.38;4765480;30;20059;-74
2022/06/03 12:21:14;;;;;;;4.80;4.20;;;;;;;27.80;53.43;101044.16;4768002;30;20424;-74
2022/06/03 12:23:54;;;;;;;6.05;4.10;;;;;;;27.83;52.99;101043.41;4768573;30;20055;-74
2022/06/03 12:26:31;;;;;;;5.07;4.10;;;;;;;27.75;53.12;101041.69;4758714;30;20060;-73
2022/06/03 12:29:17;;;;;;;7.10;4.85;;;;;;;27.67;53.97;101034.41;4759543;30;20064;-73
2022/06/03 12:31:46;;;;;;;5.97;4.60;;;;;;;27.75;53.37;101028.47;4764329;30;20063;-73
2022/06/03 12:34:27;;;;;;;6.95;4.32;;;;;;;27.86;52.41;101033.38;4778302;29;20495;-73
2022/06/03 12:37:25;;;;;;;5.30;4.57;;;;;;;27.90;52.86;101037.81;4777777;29;20400;-73
2022/06/03 12:40:03;;;;;;;5.50;4.07;;;;;;;27.86;53.26;101042.59;4765740;30;20048;-73
2022/06/03 12:42:37;;;;;;;7.35;4.93;;;;;;;27.90;52.93;101045.44;4759842;30;20066;-73
2022/06/03 12:45:12;;;;;;;10.02;4.10;;;;;;;27.90;53.09;101046.25;4761564;30;20060;-73
2022/06/03 12:47:47;;;;;;;7.75;4.50;;;;;;;27.85;53.17;101052.25;4765681;30;20451;-74
2022/06/03 12:50:32;;;;;;;5.60;4.47;;;;;;;27.85;52.31;101057.06;4763288;30;20555;-73
2022/06/03 12:53:02;;;;;;;;;;;;;;;27.80;52.36;101054.63;4767636;30;20060;-74
2022/06/03 12:55:36;;;;;;;4.57;3.88;;;;;;;27.79;52.93;101062.22;4763956;30;19926;-73
2022/06/03 12:58:20;;;;;;;4.90;4.40;;;;;;;27.66;53.26;101061.69;4759303;30;20053;-74
2022/06/03 13:00:56;;;;;;;8.98;5.07;;;;;;;27.63;54.07;101074.53;4761021;30;20511;-73
2022/06/03 13:03:24;;;;;;;6.05;4.22;;;;;;;27.57;53.56;101075.25;4764484;30;20043;-73
2022/06/03 13:05:54;;;;;;;5.28;4.45;;;;;;;27.54;53.96;101071.22;4767271;30;20052;-72